createdAt,value
2018-08-18T00:00:18.358Z,78.37
2018-08-18T00:02:47.063Z,78.87
2018-08-18T00:05:16.527Z,79.04
2018-08-18T00:07:45.194Z,78.72
2018-08-18T00:10:16.230Z,78.88
2018-08-18T00:12:45.894Z,79.57
2018-08-18T00:15:14.684Z,78.62
2018-08-18T00:17:43.367Z,78.30
2018-08-18T00:20:15.076Z,77.75
2018-08-18T00:22:43.605Z,77.26
2018-08-18T00:25:12.219Z,77.37
2018-08-18T00:27:40.826Z,77.64
2018-08-18T00:30:15.567Z,77.88
2018-08-18T00:32:44.554Z,78.40
2018-08-18T00:35:13.771Z,77.99
2018-08-18T00:37:42.375Z,77.91
2018-08-18T00:40:12.086Z,78.13
2018-08-18T00:42:41.020Z,77.44
2018-08-18T00:45:11.350Z,77.50
2018-08-18T00:47:40.334Z,77.84
2018-08-18T00:50:09.899Z,77.67
2018-08-18T00:52:38.786Z,77.61
2018-08-18T00:55:07.572Z,78.22
2018-08-18T00:57:36.203Z,78.20
2018-08-18T01:00:06.890Z,77.99
2018-08-18T01:02:35.798Z,78.13
2018-08-18T01:05:05.619Z,78.42
2018-08-18T01:07:34.784Z,78.56
2018-08-18T01:10:03.779Z,78.07
2018-08-18T01:12:33.263Z,78.71
2018-08-18T01:15:01.836Z,78.19
2018-08-18T01:17:30.511Z,78.38
2018-08-18T01:19:59.868Z,78.73
2018-08-18T01:22:28.497Z,78.95
2018-08-18T01:24:57.143Z,78.46
2018-08-18T01:27:25.770Z,77.74
2018-08-18T01:29:59.698Z,76.78
2018-08-18T01:32:28.426Z,77.23
2018-08-18T01:34:57.031Z,77.20
2018-08-18T01:37:25.602Z,76.29
2018-08-18T01:39:55.346Z,76.09
2018-08-18T01:42:24.335Z,76.36
2018-08-18T01:44:53.923Z,75.81
2018-08-18T01:47:22.966Z,76.42
2018-08-18T01:49:51.595Z,76.99
2018-08-18T01:52:23.370Z,76.52
2018-08-18T01:54:52.712Z,77.04
2018-08-18T01:57:22.486Z,76.04
2018-08-18T01:59:51.361Z,76.33
2018-08-18T02:02:22.536Z,76.94
2018-08-18T02:04:51.423Z,76.58
2018-08-18T02:07:30.768Z,76.93
2018-08-18T02:09:59.362Z,77.46
2018-08-18T02:12:28.195Z,77.70
2018-08-18T02:14:57.264Z,76.67
2018-08-18T02:17:33.641Z,76.97
2018-08-18T02:20:02.641Z,76.43
2018-08-18T02:22:32.058Z,76.52
2018-08-18T02:25:01.151Z,76.34
2018-08-18T02:27:29.665Z,76.65
2018-08-18T02:30:09.532Z,76.91
2018-08-18T02:32:39.194Z,76.62
2018-08-18T02:35:08.687Z,76.71
2018-08-18T02:37:38.288Z,77.15
2018-08-18T02:40:09.347Z,76.34
2018-08-18T02:42:38.483Z,77.27
2018-08-18T02:45:08.346Z,77.03
2018-08-18T02:47:37.386Z,76.38
2018-08-18T02:50:07.258Z,76.05
2018-08-18T02:52:36.401Z,76.06
2018-08-18T02:55:07.250Z,75.80
2018-08-18T02:57:38.650Z,75.51
2018-08-18T03:00:09.187Z,75.32
2018-08-18T03:02:38.667Z,75.98
2018-08-18T03:05:07.712Z,75.82
2018-08-18T03:07:39.400Z,76.31
2018-08-18T03:10:14.475Z,76.23
2018-08-18T03:12:45.922Z,75.85
2018-08-18T03:15:34.347Z,76.28
2018-08-18T03:18:02.985Z,75.70
2018-08-18T03:20:31.518Z,75.60
2018-08-18T03:23:00.043Z,75.69
2018-08-18T03:25:39.689Z,75.83
2018-08-18T03:28:08.327Z,76.21
2018-08-18T03:30:38.187Z,75.94
2018-08-18T03:33:07.043Z,77.24
2018-08-18T03:35:35.665Z,77.61
2018-08-18T03:38:04.243Z,76.59
2018-08-18T03:40:32.812Z,77.65
2018-08-18T03:43:01.314Z,76.96
2018-08-18T03:45:29.839Z,77.55
2018-08-18T03:47:58.472Z,76.35
2018-08-18T03:50:41.186Z,76.47
2018-08-18T03:53:09.715Z,77.71
2018-08-18T03:55:39.427Z,77.66
2018-08-18T03:58:08.675Z,78.15
2018-08-18T04:00:37.278Z,78.65
2018-08-18T04:03:06.023Z,78.89
2018-08-18T04:05:34.683Z,79.87
2018-08-18T04:08:03.315Z,79.55
2018-08-18T04:10:31.974Z,79.50
2018-08-18T04:13:02.221Z,80.33
2018-08-18T04:15:30.824Z,79.47
2018-08-18T04:18:03.495Z,80.04
2018-08-18T04:20:32.026Z,79.60
2018-08-18T04:23:01.780Z,79.60
2018-08-18T04:25:30.307Z,79.41
2018-08-18T04:27:58.837Z,79.18
2018-08-18T04:30:27.323Z,78.05
2018-08-18T04:32:59.803Z,76.39
2018-08-18T04:35:29.454Z,75.96
2018-08-18T04:37:59.050Z,74.66
2018-08-18T04:40:27.830Z,75.18
2018-08-18T04:42:56.794Z,75.45
2018-08-18T04:45:25.535Z,75.51
2018-08-18T04:47:54.155Z,75.50
2018-08-18T04:50:23.210Z,76.09
2018-08-18T04:52:53.974Z,75.33
2018-08-18T04:55:22.843Z,75.79
2018-08-18T04:57:51.661Z,75.55
2018-08-18T05:00:20.400Z,75.50
2018-08-18T05:02:53.146Z,75.67
2018-08-18T05:05:27.041Z,75.26
2018-08-18T05:07:57.174Z,75.63
2018-08-18T05:10:25.907Z,75.37
2018-08-18T05:12:54.459Z,75.53
2018-08-18T05:15:23.007Z,74.75
2018-08-18T05:17:51.637Z,75.04
2018-08-18T05:20:22.928Z,74.96
2018-08-18T05:22:51.587Z,75.28
2018-08-18T05:25:27.078Z,75.33
2018-08-18T05:27:56.270Z,75.69
2018-08-18T05:30:25.417Z,75.50
2018-08-18T05:32:54.046Z,75.18
2018-08-18T05:35:22.731Z,75.53
2018-08-18T05:37:51.318Z,75.69
2018-08-18T05:40:19.942Z,74.92
2018-08-18T05:42:48.686Z,74.79
2018-08-18T05:45:27.300Z,74.82
2018-08-18T05:47:56.154Z,75.26
2018-08-18T05:50:26.536Z,74.88
2018-08-18T05:52:58.198Z,74.37
2018-08-18T05:55:27.101Z,73.92
2018-08-18T05:57:55.623Z,73.65
2018-08-18T06:00:25.471Z,74.14
2018-08-18T06:02:59.630Z,73.79
2018-08-18T06:05:30.058Z,73.91
2018-08-18T06:07:59.503Z,73.70
2018-08-18T06:10:28.693Z,73.15
2018-08-18T06:12:58.288Z,72.20
2018-08-18T06:15:27.027Z,71.66
2018-08-18T06:17:55.616Z,70.83
2018-08-18T06:20:24.210Z,70.45
2018-08-18T06:22:52.824Z,71.47
2018-08-18T06:25:21.515Z,70.83
2018-08-18T06:27:50.027Z,71.84
2018-08-18T06:30:19.969Z,71.57
2018-08-18T06:32:48.643Z,69.87
2018-08-18T06:35:17.263Z,70.24
2018-08-18T06:37:50.069Z,69.96
2018-08-18T06:40:18.675Z,69.19
2018-08-18T06:42:47.350Z,69.42
2018-08-18T06:45:19.614Z,68.83
2018-08-18T06:47:48.392Z,68.96
2018-08-18T06:50:18.054Z,68.58
2018-08-18T06:52:47.365Z,69.48
2018-08-18T06:55:18.517Z,68.48
2018-08-18T06:57:52.367Z,68.57
2018-08-18T07:00:22.518Z,67.76
2018-08-18T07:02:51.122Z,68.82
2018-08-18T07:05:20.620Z,68.68
2018-08-18T07:07:50.271Z,66.57
2018-08-18T07:10:30.162Z,67.68
2018-08-18T07:13:02.850Z,67.72
2018-08-18T07:15:36.750Z,68.10
2018-08-18T07:18:06.817Z,68.13
2018-08-18T07:20:35.504Z,67.83
2018-08-18T07:23:04.151Z,66.40
2018-08-18T07:25:32.833Z,68.07
2018-08-18T07:28:06.939Z,67.54
2018-08-18T07:30:35.549Z,67.17
2018-08-18T07:33:04.256Z,67.54
2018-08-18T07:35:32.846Z,68.34
2018-08-18T07:38:01.524Z,68.52
2018-08-18T07:40:40.538Z,68.61
2018-08-18T07:43:09.441Z,67.82
2018-08-18T07:45:38.671Z,66.88
2018-08-18T07:48:08.335Z,67.02
2018-08-18T07:50:37.037Z,66.03
2018-08-18T07:53:05.846Z,65.81
2018-08-18T07:55:34.506Z,66.64
2018-08-18T07:58:04.687Z,65.37
2018-08-18T08:00:34.518Z,66.47
2018-08-18T08:03:03.394Z,66.12
2018-08-18T08:05:32.496Z,66.15
2018-08-18T08:08:01.319Z,65.62
2018-08-18T08:10:30.142Z,65.37
2018-08-18T08:12:59.050Z,64.57
2018-08-18T08:15:27.657Z,65.78
2018-08-18T08:17:56.411Z,64.95
2018-08-18T08:20:25.086Z,62.74
2018-08-18T08:22:55.016Z,62.45
2018-08-18T08:25:23.562Z,63.17
2018-08-18T08:27:53.298Z,63.07
2018-08-18T08:30:23.339Z,63.30
2018-08-18T08:32:52.106Z,63.11
2018-08-18T08:35:20.994Z,62.14
2018-08-18T08:37:52.789Z,63.21
2018-08-18T08:40:22.459Z,63.01
2018-08-18T08:42:51.139Z,63.41
2018-08-18T08:45:20.915Z,63.56
2018-08-18T08:47:50.005Z,64.42
2018-08-18T08:50:21.999Z,63.34
2018-08-18T08:52:51.926Z,63.37
2018-08-18T08:55:21.856Z,64.04
2018-08-18T08:57:50.583Z,63.68
2018-08-18T09:00:19.166Z,64.43
2018-08-18T09:02:48.059Z,63.87
2018-08-18T09:05:17.666Z,64.87
2018-08-18T09:07:46.451Z,65.21
2018-08-18T09:10:15.709Z,65.81
2018-08-18T09:12:44.337Z,66.27
2018-08-18T09:15:14.639Z,65.17
2018-08-18T09:17:43.325Z,65.96
2018-08-18T09:20:14.679Z,66.72
2018-08-18T09:22:55.578Z,66.86
2018-08-18T09:25:24.311Z,67.05
2018-08-18T09:27:54.740Z,66.85
2018-08-18T09:30:24.537Z,66.90
2018-08-18T09:32:53.175Z,66.87
2018-08-18T09:35:21.855Z,68.01
2018-08-18T09:37:55.717Z,68.51
2018-08-18T09:40:24.390Z,69.31
2018-08-18T09:42:53.033Z,69.13
2018-08-18T09:45:21.722Z,69.26
2018-08-18T09:47:50.401Z,69.41
2018-08-18T09:50:19.399Z,68.50
2018-08-18T09:52:48.646Z,67.81
2018-08-18T09:55:17.685Z,67.56
2018-08-18T09:57:46.219Z,67.58
2018-08-18T10:00:15.876Z,67.17
2018-08-18T10:02:44.971Z,67.15
2018-08-18T10:05:13.607Z,66.97
2018-08-18T10:07:42.516Z,67.05
2018-08-18T10:10:13.442Z,66.86
2018-08-18T10:12:42.070Z,67.31
2018-08-18T10:15:10.654Z,67.69
2018-08-18T10:17:39.234Z,68.22
2018-08-18T10:20:08.282Z,69.39
2018-08-18T10:22:37.919Z,69.67
2018-08-18T10:25:07.077Z,70.74
2018-08-18T10:27:35.650Z,72.62
2018-08-18T10:30:04.991Z,73.03
2018-08-18T10:32:35.243Z,76.27
2018-08-18T10:35:03.975Z,76.80
2018-08-18T10:37:32.607Z,76.30
2018-08-18T10:40:07.233Z,79.02
2018-08-18T10:42:35.816Z,77.66
2018-08-18T10:45:05.222Z,77.67
2018-08-18T10:47:33.850Z,77.49
2018-08-18T10:50:49.266Z,77.17
2018-08-18T10:53:17.807Z,76.85
2018-08-18T10:55:46.446Z,76.05
2018-08-18T10:58:25.174Z,75.92
2018-08-18T11:00:53.824Z,75.40
2018-08-18T11:03:22.479Z,74.16
2018-08-18T11:05:51.040Z,74.28
2018-08-18T11:08:19.623Z,73.88
2018-08-18T11:10:48.213Z,73.89
2018-08-18T11:13:18.612Z,73.53
2018-08-18T11:15:47.178Z,73.24
2018-08-18T11:18:15.789Z,72.11
2018-08-18T11:20:44.427Z,72.35
2018-08-18T11:23:13.794Z,72.03
2018-08-18T11:25:49.426Z,72.16
2018-08-18T11:28:18.977Z,72.17
2018-08-18T11:30:47.718Z,72.12
2018-08-18T11:33:47.527Z,71.62
2018-08-18T11:36:16.100Z,71.97
2018-08-18T11:38:44.788Z,72.11
2018-08-18T11:41:13.473Z,72.34
2018-08-18T11:43:47.520Z,72.11
2018-08-18T11:46:16.802Z,71.67
2018-08-18T11:48:45.389Z,71.66
2018-08-18T11:51:13.982Z,70.75
2018-08-18T11:53:55.637Z,71.11
2018-08-18T11:56:24.216Z,71.10
2018-08-18T11:59:05.320Z,70.40
2018-08-18T12:01:38.584Z,70.45
2018-08-18T12:04:07.476Z,70.82
2018-08-18T12:06:41.506Z,71.21
2018-08-18T12:09:10.419Z,71.15
2018-08-18T12:11:39.274Z,70.83
2018-08-18T12:14:07.848Z,70.74
2018-08-18T12:16:36.826Z,71.06
2018-08-18T12:19:05.607Z,70.90
2018-08-18T12:21:38.794Z,70.31
2018-08-18T12:24:07.403Z,70.93
2018-08-18T12:26:36.088Z,71.13
2018-08-18T12:29:04.773Z,70.63
2018-08-18T12:31:33.361Z,70.72
2018-08-18T12:34:01.987Z,70.16
2018-08-18T12:36:30.706Z,70.19
2018-08-18T12:38:59.265Z,69.62
2018-08-18T12:41:27.791Z,69.75
2018-08-18T12:43:57.973Z,69.62
2018-08-18T12:46:35.787Z,68.97
2018-08-18T12:49:05.894Z,69.28
2018-08-18T12:51:35.024Z,69.74
2018-08-18T12:54:03.776Z,70.30
2018-08-18T12:56:32.395Z,70.27
2018-08-18T12:59:01.182Z,70.15
2018-08-18T13:01:41.476Z,70.38
2018-08-18T13:04:12.065Z,70.81
2018-08-18T13:06:48.939Z,71.46
2018-08-18T13:09:19.254Z,71.70
2018-08-18T13:11:49.203Z,71.79
2018-08-18T13:14:20.292Z,71.69
2018-08-18T13:16:49.678Z,71.49
2018-08-18T13:19:20.330Z,71.19
2018-08-18T13:21:49.046Z,71.96
2018-08-18T13:24:17.703Z,71.97
2018-08-18T13:26:46.622Z,72.20
2018-08-18T13:29:15.253Z,72.52
2018-08-18T13:31:44.790Z,72.83
2018-08-18T13:34:15.674Z,72.89
2018-08-18T13:36:45.152Z,72.74
2018-08-18T13:39:15.114Z,72.63
2018-08-18T13:41:44.878Z,72.90
2018-08-18T13:44:28.703Z,73.13
2018-08-18T13:46:57.301Z,73.34
2018-08-18T13:49:26.955Z,73.49
2018-08-18T13:51:55.593Z,73.12
2018-08-18T13:54:24.180Z,73.09
2018-08-18T13:56:52.866Z,72.97
2018-08-18T14:02:16.107Z,73.14
2018-08-18T14:04:44.869Z,73.37
2018-08-18T14:07:14.063Z,73.81
2018-08-18T14:09:43.991Z,73.84
2018-08-18T14:12:16.887Z,74.16
2018-08-18T14:14:46.325Z,74.40
2018-08-18T14:17:15.788Z,74.80
2018-08-18T14:19:44.720Z,73.99
2018-08-18T14:22:13.402Z,74.19
2018-08-18T14:24:42.497Z,74.26
2018-08-18T14:27:17.485Z,74.38
2018-08-18T14:29:46.216Z,75.07
2018-08-18T14:32:20.021Z,75.38
2018-08-18T14:34:57.783Z,75.45
2018-08-18T14:37:26.460Z,75.45
2018-08-18T14:39:55.194Z,74.99
2018-08-18T14:42:23.720Z,75.22
2018-08-18T14:44:55.449Z,75.48
2018-08-18T14:47:24.670Z,75.70
2018-08-18T14:50:07.236Z,75.66
2018-08-18T14:52:35.736Z,76.02
2018-08-18T14:55:04.349Z,76.21
2018-08-18T14:57:35.056Z,76.56
2018-08-18T15:00:03.675Z,76.89
2018-08-18T15:02:32.407Z,76.34
2018-08-18T15:05:00.988Z,76.35
2018-08-18T15:07:30.819Z,76.51
2018-08-18T15:09:59.490Z,77.71
2018-08-18T15:12:28.011Z,76.89
2018-08-18T15:14:56.635Z,77.58
2018-08-18T15:17:25.156Z,77.29
2018-08-18T15:19:54.376Z,77.01
2018-08-18T15:22:23.013Z,78.69
2018-08-18T15:24:51.698Z,78.80
2018-08-18T15:27:20.384Z,78.54
2018-08-18T15:29:49.670Z,77.49
2018-08-18T15:32:18.370Z,77.61
2018-08-18T15:34:46.877Z,77.59
2018-08-18T15:37:15.471Z,77.63
2018-08-18T15:39:44.079Z,78.16
2018-08-18T15:42:12.704Z,78.35
2018-08-18T15:44:52.184Z,79.30
2018-08-18T15:47:20.766Z,79.14
2018-08-18T15:49:49.405Z,80.57
2018-08-18T15:52:19.605Z,79.83
2018-08-18T15:54:48.266Z,80.04
2018-08-18T15:57:16.894Z,80.59
2018-08-18T15:59:45.585Z,79.49
2018-08-18T16:02:14.092Z,80.06
2018-08-18T16:04:42.744Z,80.32
2018-08-18T16:07:11.341Z,80.19
2018-08-18T16:09:40.072Z,81.00
2018-08-18T16:12:08.697Z,80.64
2018-08-18T16:14:37.191Z,80.56
2018-08-18T16:17:05.822Z,82.06
2018-08-18T16:19:35.717Z,81.81
2018-08-18T16:22:05.179Z,81.79
2018-08-18T16:24:39.346Z,83.26
2018-08-18T16:27:08.470Z,82.38
2018-08-18T16:29:37.626Z,82.97
2018-08-18T16:32:27.469Z,82.83
2018-08-18T16:35:02.538Z,83.10
2018-08-18T16:37:31.712Z,83.32
2018-08-18T16:40:00.704Z,83.19
2018-08-18T16:42:29.599Z,83.56
2018-08-18T16:44:58.319Z,83.32
2018-08-18T16:47:27.031Z,83.84
2018-08-18T16:49:56.338Z,83.00
2018-08-18T16:52:25.040Z,83.37
2018-08-18T16:54:54.326Z,83.30
2018-08-18T16:57:24.298Z,82.53
2018-08-18T16:59:52.875Z,82.45
2018-08-18T17:02:34.311Z,82.74
2018-08-18T17:05:02.867Z,82.13
2018-08-18T17:07:33.338Z,82.12
2018-08-18T17:10:01.946Z,80.54
2018-08-18T17:12:31.563Z,79.72
2018-08-18T17:15:00.126Z,79.78
2018-08-18T17:17:28.707Z,79.49
2018-08-18T17:19:57.372Z,79.11
2018-08-18T17:22:25.875Z,78.36
2018-08-18T17:24:55.359Z,78.38
2018-08-18T17:27:24.012Z,77.75
2018-08-18T17:29:53.460Z,77.46
2018-08-18T17:32:22.123Z,77.25
2018-08-18T17:34:50.670Z,76.97
2018-08-18T17:37:19.397Z,77.16
2018-08-18T17:39:48.113Z,77.75
2018-08-18T17:42:16.715Z,78.46
2018-08-18T17:44:45.441Z,78.05
2018-08-18T17:47:14.848Z,78.64
2018-08-18T17:49:48.868Z,79.63
2018-08-18T17:52:17.608Z,79.72
2018-08-18T17:55:01.443Z,82.63
2018-08-18T17:57:30.033Z,84.47
2018-08-18T17:59:58.755Z,85.66
2018-08-18T18:02:27.375Z,85.85
2018-08-18T18:05:01.084Z,86.22
2018-08-18T18:07:29.628Z,86.21
2018-08-18T18:09:58.321Z,86.76
2018-08-18T18:12:27.947Z,87.20
2018-08-18T18:14:56.958Z,87.23
2018-08-18T18:17:26.183Z,87.43
2018-08-18T18:19:57.344Z,87.33
2018-08-18T18:22:39.910Z,86.52
2018-08-18T18:25:08.464Z,86.63
2018-08-18T18:27:37.111Z,87.12
2018-08-18T18:30:05.950Z,87.02
2018-08-18T18:32:34.526Z,88.02
2018-08-18T18:35:03.278Z,87.02
2018-08-18T18:37:31.732Z,87.26
2018-08-18T18:40:03.829Z,86.79
2018-08-18T18:42:32.462Z,87.74
2018-08-18T18:45:01.003Z,87.33
2018-08-18T18:47:29.851Z,87.36
2018-08-18T18:49:58.477Z,87.47
2018-08-18T18:52:27.057Z,87.26
2018-08-18T18:54:57.895Z,86.86
2018-08-18T18:57:26.784Z,86.18
2018-08-18T18:59:56.896Z,86.40
2018-08-18T19:02:28.279Z,86.35
2018-08-18T19:04:56.878Z,86.42
2018-08-18T19:07:25.442Z,86.63
2018-08-18T19:09:59.018Z,86.92
2018-08-18T19:12:27.587Z,87.17
2018-08-18T19:14:56.136Z,87.83
2018-08-18T19:17:24.650Z,88.08
2018-08-18T19:20:02.963Z,87.76
2018-08-18T19:22:31.498Z,88.42
2018-08-18T19:25:00.182Z,87.66
2018-08-18T19:27:28.761Z,87.69
2018-08-18T19:29:57.465Z,87.31
2018-08-18T19:32:26.047Z,87.11
2018-08-18T19:34:54.678Z,87.05
2018-08-18T19:37:23.261Z,87.30
2018-08-18T19:39:51.907Z,86.41
2018-08-18T19:42:20.468Z,86.28
2018-08-18T19:44:51.446Z,86.42
2018-08-18T19:47:25.269Z,86.74
2018-08-18T19:49:53.961Z,86.72
2018-08-18T19:52:23.159Z,87.11
2018-08-18T19:54:52.619Z,86.69
2018-08-18T19:57:27.847Z,87.07
2018-08-18T20:00:01.918Z,86.93
2018-08-18T20:02:43.206Z,86.73
2018-08-18T20:05:11.774Z,86.87
2018-08-18T20:07:40.354Z,86.90
2018-08-18T20:10:08.989Z,86.83
2018-08-18T20:12:37.623Z,87.21
2018-08-18T20:15:06.491Z,87.32
2018-08-18T20:17:35.063Z,87.28
2018-08-18T20:20:03.686Z,87.79
2018-08-18T20:22:32.270Z,88.09
2018-08-18T20:25:01.662Z,88.23
2018-08-18T20:27:30.300Z,88.50
2018-08-18T20:29:58.870Z,89.27
2018-08-18T20:32:27.431Z,89.46
2018-08-18T20:34:56.026Z,88.11
2018-08-18T20:37:24.575Z,86.41
2018-08-18T20:39:53.466Z,86.09
2018-08-18T20:42:27.681Z,86.82
2018-08-18T20:44:58.824Z,87.23
2018-08-18T20:47:29.928Z,87.99
2018-08-18T20:49:58.754Z,86.80
2018-08-18T20:52:28.506Z,88.11
2018-08-18T20:54:58.020Z,88.48
2018-08-18T20:57:26.622Z,88.93
2018-08-18T20:59:55.176Z,89.88
2018-08-18T21:02:23.821Z,89.46
2018-08-18T21:05:01.212Z,89.80
2018-08-18T21:07:31.887Z,90.23
2018-08-18T21:10:01.398Z,90.82
2018-08-18T21:12:48.246Z,90.08
2018-08-18T21:15:17.415Z,90.38
2018-08-18T21:17:46.120Z,89.54
2018-08-18T21:20:17.384Z,89.39
2018-08-18T21:22:45.968Z,88.79
2018-08-18T21:25:15.676Z,88.66
2018-08-18T21:27:44.464Z,88.29
2018-08-18T21:30:15.943Z,88.30
2018-08-18T21:32:44.599Z,88.77
2018-08-18T21:35:13.232Z,88.32
2018-08-18T21:37:41.999Z,89.35
2018-08-18T21:40:11.234Z,89.71
2018-08-18T21:42:39.811Z,88.83
2018-08-18T21:45:11.151Z,89.33
2018-08-18T21:47:39.778Z,87.85
2018-08-18T21:50:08.338Z,88.41
2018-08-18T21:52:36.949Z,88.57
2018-08-18T21:55:05.671Z,89.05
2018-08-18T21:57:46.505Z,89.32
2018-08-18T22:00:15.764Z,89.46
2018-08-18T22:02:44.483Z,88.96
2018-08-18T22:05:14.353Z,89.36
2018-08-18T22:07:50.772Z,88.73
2018-08-18T22:10:19.330Z,89.02
2018-08-18T22:12:47.985Z,89.15
2018-08-18T22:15:21.230Z,89.35
2018-08-18T22:17:52.327Z,89.70
2018-08-18T22:20:22.287Z,89.07
2018-08-18T22:22:51.971Z,89.52
2018-08-18T22:25:20.470Z,88.93
2018-08-18T22:27:53.402Z,89.68
2018-08-18T22:30:25.899Z,90.11
2018-08-18T22:32:54.528Z,90.85
2018-08-18T22:35:23.934Z,90.69
2018-08-18T22:37:52.546Z,90.31
2018-08-18T22:40:21.109Z,90.42
2018-08-18T22:42:49.770Z,88.94
2018-08-18T22:45:29.004Z,88.26
2018-08-18T22:47:57.618Z,88.84
2018-08-18T22:50:26.214Z,88.57
2018-08-18T22:52:55.369Z,88.67
2018-08-18T22:55:23.904Z,90.44
2018-08-18T22:57:58.666Z,90.97
2018-08-18T23:00:27.506Z,90.60
2018-08-18T23:02:56.091Z,90.31
2018-08-18T23:05:24.631Z,90.67
2018-08-18T23:07:54.999Z,90.49
2018-08-18T23:10:26.110Z,89.56
2018-08-18T23:12:54.680Z,89.38
2018-08-18T23:15:23.191Z,89.45
2018-08-18T23:17:51.798Z,89.51
2018-08-18T23:20:20.534Z,88.83
2018-08-18T23:22:59.435Z,88.54
2018-08-18T23:25:30.374Z,87.60
2018-08-18T23:27:59.128Z,85.96
2018-08-18T23:30:35.798Z,86.45
2018-08-18T23:33:06.154Z,86.53
2018-08-18T23:35:35.272Z,85.19
2018-08-18T23:38:04.227Z,85.28
2018-08-18T23:40:33.203Z,85.68
2018-08-18T23:43:01.891Z,85.72
2018-08-18T23:45:36.623Z,85.93
2018-08-18T23:48:07.141Z,85.58
2018-08-18T23:50:37.246Z,86.24
2018-08-18T23:53:07.834Z,86.46
2018-08-18T23:55:39.619Z,86.43
2018-08-18T23:58:08.123Z,87.05
